Terminal Aerodrome Forecast
Issued by NWS

Home | Current Version | Previous Version | Text Only | Print | Product List | Glossary On
Versions: 1 2 3 4 5 6 7 8 9 10 11 12
000
FTUS44 KTSA 300500
TAFRVS
TAF
KRVS 300520Z 3006/3106 13003KT P6SM BKN100
     FM300900 11003KT P6SM VCSH OVC100
      TEMPO 3012/3016 3SM -RA OVC050
     FM301600 14005KT 3SM -RA OVC025
     FM302000 12007KT 5SM -RA BR BKN025
      TEMPO 3102/3106 3SM -RA BKN015=

USA.gov is the U.S. government's official web portal to all federal, state and local government web resources and services.